createdAt,value
2018-05-03T10:14:22.724Z,60.60
2018-05-03T10:16:49.902Z,63.30
2018-05-03T10:19:16.351Z,63.30
2018-05-03T10:21:42.836Z,59.00
2018-05-03T10:24:10.013Z,58.20
2018-05-03T10:26:36.449Z,58.20
2018-05-03T10:29:02.902Z,58.80
2018-05-03T10:31:29.352Z,60.00
2018-05-03T10:33:55.750Z,60.00
2018-05-03T10:36:22.223Z,58.50
2018-05-03T10:38:48.714Z,60.30
2018-05-03T10:41:15.869Z,60.00
2018-05-03T10:43:42.332Z,60.00
2018-05-03T10:46:08.798Z,59.40
2018-05-03T10:48:35.297Z,60.90
2018-05-03T10:51:01.741Z,59.40
2018-05-03T10:53:28.154Z,58.60
2018-05-03T10:55:55.346Z,58.80
2018-05-03T10:58:21.779Z,57.80
2018-05-03T11:00:48.216Z,57.90
2018-05-03T11:03:15.433Z,56.70
2018-05-03T11:05:41.832Z,56.60
2018-05-03T11:08:08.304Z,58.40
2018-05-03T11:10:36.323Z,56.60
2018-05-03T11:13:02.810Z,56.60
2018-05-03T11:15:29.341Z,56.40
2018-05-03T11:17:56.572Z,56.20
2018-05-03T11:20:23.065Z,56.20
2018-05-03T11:48:26.044Z,57.10
2018-05-03T11:50:52.498Z,56.00
2018-05-03T11:53:19.019Z,55.40
2018-05-03T11:55:46.376Z,55.10
2018-05-03T11:58:12.945Z,54.90
2018-05-03T12:00:53.233Z,54.80
2018-05-03T12:03:30.770Z,54.30
2018-05-03T12:05:57.395Z,54.20
2018-05-03T12:08:24.563Z,54.50
2018-05-03T12:10:51.016Z,54.60
2018-05-03T12:13:18.158Z,54.10
2018-05-03T12:15:44.572Z,54.10
2018-05-03T12:18:11.324Z,53.90
2018-05-03T12:20:37.808Z,54.00
2018-05-03T12:23:05.194Z,53.90
2018-05-03T12:25:31.623Z,53.80
2018-05-03T12:27:58.214Z,53.70
2018-05-03T12:30:24.735Z,53.80
2018-05-03T12:32:51.235Z,53.50
2018-05-03T12:35:17.723Z,52.90
2018-05-03T12:37:44.904Z,53.20
2018-05-03T12:40:11.329Z,53.20
2018-05-03T12:42:37.760Z,53.00
2018-05-03T12:45:05.161Z,52.70
2018-05-03T12:47:31.669Z,52.80
2018-05-03T12:49:58.098Z,52.40
2018-05-03T12:52:25.717Z,52.20
2018-05-03T12:54:52.287Z,52.00
2018-05-03T12:57:18.743Z,52.00
2018-05-03T12:59:45.389Z,51.70
2018-05-03T13:02:12.162Z,51.50
2018-05-03T13:04:39.580Z,54.10
2018-05-03T13:07:07.466Z,54.10
2018-05-03T13:09:34.697Z,52.70
2018-05-03T13:12:01.462Z,52.10
2018-05-03T13:14:27.947Z,51.30
2018-05-03T13:16:54.502Z,51.90
2018-05-03T13:19:21.090Z,52.30
2018-05-03T13:21:48.371Z,53.00
2018-05-03T13:24:14.869Z,52.90
2018-05-03T13:26:41.346Z,51.10
2018-05-03T13:29:07.888Z,50.90
2018-05-03T13:31:34.473Z,49.80
2018-05-03T13:34:01.035Z,50.30
2018-05-03T13:36:28.193Z,50.20
2018-05-03T13:38:54.679Z,50.20
2018-05-03T13:41:21.288Z,50.00
2018-05-03T13:43:47.796Z,50.80
2018-05-03T13:46:14.231Z,51.30
2018-05-03T13:48:40.726Z,50.80
2018-05-03T13:51:07.241Z,50.50
2018-05-03T13:53:33.636Z,51.00
2018-05-03T13:56:00.161Z,52.70
2018-05-03T13:58:28.275Z,51.80
2018-05-03T14:00:55.051Z,51.60
2018-05-03T14:03:22.415Z,50.30
2018-05-03T14:05:49.834Z,49.50
2018-05-03T14:08:17.076Z,49.70
2018-05-03T14:10:43.543Z,50.10
2018-05-03T14:13:10.819Z,48.40
2018-05-03T14:15:38.032Z,49.30
2018-05-03T14:18:04.771Z,49.30
2018-05-03T14:20:33.265Z,49.40
2018-05-03T14:22:59.715Z,49.30
2018-05-03T14:25:27.308Z,49.50
2018-05-03T14:27:53.986Z,49.50
2018-05-03T14:30:20.497Z,49.40
2018-05-03T14:32:46.955Z,49.80
2018-05-03T14:35:13.392Z,49.80
2018-05-03T14:37:39.898Z,49.80
2018-05-03T14:40:06.371Z,49.20
2018-05-03T14:42:33.053Z,49.50
2018-05-03T14:44:59.503Z,50.00
2018-05-03T14:47:25.947Z,49.60
2018-05-03T14:49:52.357Z,49.20
2018-05-03T14:52:18.809Z,48.70
2018-05-03T14:54:45.403Z,48.40
2018-05-03T14:57:11.902Z,48.20
2018-05-03T14:59:38.390Z,47.80
2018-05-03T15:02:04.857Z,47.60
2018-05-03T15:04:31.394Z,47.20
2018-05-03T15:06:58.024Z,47.50
2018-05-03T15:09:24.513Z,47.80
2018-05-03T15:11:51.858Z,48.00
2018-05-03T15:14:18.420Z,48.00
2018-05-03T15:16:45.214Z,48.00
2018-05-03T15:19:11.748Z,48.00
2018-05-03T15:21:38.260Z,48.10
2018-05-03T15:24:04.823Z,47.80
2018-05-03T15:26:32.307Z,47.70
2018-05-03T15:28:58.771Z,48.30
2018-05-03T15:31:25.508Z,48.10
2018-05-03T15:33:52.032Z,47.50
2018-05-03T15:36:18.440Z,47.40
2018-05-03T15:38:45.626Z,47.30
2018-05-03T15:41:12.063Z,47.30
2018-05-03T15:43:38.767Z,47.30
2018-05-03T15:46:05.358Z,47.30
2018-05-03T15:48:31.962Z,47.20
2018-05-03T15:50:58.404Z,49.10
2018-05-03T15:53:25.047Z,48.20
2018-05-03T15:55:51.932Z,46.30
2018-05-03T15:58:18.552Z,49.10
2018-05-03T16:00:45.098Z,47.60
2018-05-03T16:03:14.131Z,46.60
2018-05-03T16:05:41.948Z,46.60
2018-05-03T16:08:14.023Z,47.80
2018-05-03T16:10:45.353Z,47.30
2018-05-03T16:13:11.917Z,47.30
2018-05-03T16:15:39.123Z,47.40
2018-05-03T16:18:06.039Z,47.40
2018-05-03T16:20:32.545Z,46.50
2018-05-03T16:22:58.968Z,46.80
2018-05-03T16:25:26.705Z,46.10
2018-05-03T16:27:53.268Z,46.10
